createdAt,value
2022-09-16T00:01:12.303Z,15.37
2022-09-16T00:03:40.481Z,15.26
2022-09-16T00:06:17.490Z,15.29
2022-09-16T00:08:46.785Z,15.25
2022-09-16T00:11:14.632Z,15.26
2022-09-16T00:13:42.409Z,15.25
2022-09-16T00:16:12.190Z,15.24
2022-09-16T00:18:40.442Z,15.20
2022-09-16T00:21:10.152Z,15.24
2022-09-16T00:23:38.883Z,15.24
2022-09-16T00:26:08.177Z,15.28
2022-09-16T00:28:35.935Z,15.26
2022-09-16T00:31:04.497Z,15.29
2022-09-16T00:33:33.236Z,15.27
2022-09-16T00:36:08.826Z,15.29
2022-09-16T00:38:36.679Z,15.20
2022-09-16T00:41:05.232Z,15.22
2022-09-16T00:43:50.398Z,15.26
2022-09-16T00:46:19.918Z,15.24
2022-09-16T00:48:48.284Z,15.19
2022-09-16T00:51:18.305Z,15.21
2022-09-16T00:53:52.132Z,15.11
2022-09-16T00:56:23.769Z,15.06
2022-09-16T00:59:02.055Z,14.96
2022-09-16T01:01:30.901Z,15.00
2022-09-16T01:04:05.164Z,14.96
2022-09-16T01:06:39.616Z,14.95
2022-09-16T01:09:07.966Z,14.88
2022-09-16T01:11:36.072Z,14.84
2022-09-16T01:14:24.085Z,14.80
2022-09-16T01:17:01.624Z,14.84
2022-09-16T01:19:44.820Z,14.96
2022-09-16T01:22:27.650Z,14.90
2022-09-16T01:25:03.532Z,15.06
2022-09-16T01:27:50.327Z,14.96
2022-09-16T01:30:45.333Z,14.87
2022-09-16T01:33:23.015Z,14.90
2022-09-16T01:36:07.349Z,15.02
2022-09-16T01:38:51.365Z,14.97
2022-09-16T01:41:28.249Z,15.03
2022-09-16T01:44:03.191Z,15.08
2022-09-16T01:46:43.077Z,15.00
2022-09-16T01:49:19.156Z,14.98
2022-09-16T01:51:54.498Z,14.99
2022-09-16T01:54:27.928Z,14.96
2022-09-16T01:57:02.711Z,14.91
2022-09-16T01:59:36.869Z,14.94
2022-09-16T02:02:11.709Z,14.84
2022-09-16T02:04:44.421Z,14.83
2022-09-16T02:07:16.646Z,14.83
2022-09-16T02:09:50.287Z,14.81
2022-09-16T02:12:24.600Z,14.79
2022-09-16T02:14:58.212Z,14.84
2022-09-16T02:17:31.202Z,14.83
2022-09-16T02:20:04.336Z,14.90
2022-09-16T02:22:37.846Z,14.97
2022-09-16T02:25:08.578Z,14.83
2022-09-16T02:27:39.450Z,14.84
2022-09-16T02:30:10.659Z,14.83
2022-09-16T02:32:44.142Z,14.85
2022-09-16T02:35:16.589Z,14.94
2022-09-16T02:37:48.794Z,14.89
2022-09-16T02:40:19.583Z,14.90
2022-09-16T02:42:47.663Z,14.95
2022-09-16T02:45:15.449Z,14.93
2022-09-16T02:47:54.774Z,14.87
2022-09-16T02:50:30.832Z,14.88
2022-09-16T02:53:02.915Z,14.90
2022-09-16T02:55:39.680Z,14.90
2022-09-16T02:58:08.442Z,14.89
2022-09-16T03:00:42.102Z,14.91
2022-09-16T03:03:11.364Z,14.95
2022-09-16T03:06:04.743Z,14.88
2022-09-16T03:08:33.170Z,14.86
2022-09-16T03:11:18.907Z,14.81
2022-09-16T03:13:55.714Z,14.89
2022-09-16T03:16:35.761Z,14.80
2022-09-16T03:19:18.652Z,14.75
2022-09-16T03:21:56.066Z,14.80
2022-09-16T03:24:36.645Z,14.77
2022-09-16T03:27:10.799Z,14.76
2022-09-16T03:29:45.672Z,14.80
2022-09-16T03:32:21.185Z,14.74
2022-09-16T03:34:53.605Z,14.80
2022-09-16T03:37:23.393Z,14.75
2022-09-16T03:39:53.596Z,14.72
2022-09-16T03:42:22.628Z,14.67
2022-09-16T03:44:50.797Z,14.64
2022-09-16T03:47:19.006Z,14.57
2022-09-16T03:49:46.770Z,14.54
2022-09-16T03:52:18.501Z,14.61
2022-09-16T03:54:46.508Z,14.54
2022-09-16T03:57:14.347Z,14.55
2022-09-16T03:59:42.287Z,14.60
2022-09-16T04:02:10.112Z,14.63
2022-09-16T04:04:37.909Z,14.60
2022-09-16T04:07:06.035Z,14.61
2022-09-16T04:09:37.253Z,14.65
2022-09-16T04:12:07.516Z,14.76
2022-09-16T04:14:35.834Z,14.73
2022-09-16T04:17:05.104Z,14.69
2022-09-16T04:19:33.109Z,14.68
2022-09-16T04:22:01.352Z,14.68
2022-09-16T04:24:29.605Z,14.69
2022-09-16T04:26:58.775Z,14.70
2022-09-16T04:29:27.811Z,14.69
2022-09-16T04:31:56.046Z,14.70
2022-09-16T04:34:23.846Z,14.76
2022-09-16T04:36:51.734Z,14.67
2022-09-16T04:39:19.549Z,14.70
2022-09-16T04:41:49.306Z,14.68
2022-09-16T04:44:18.670Z,14.74
2022-09-16T04:46:46.521Z,14.69
2022-09-16T04:49:14.326Z,14.78
2022-09-16T04:51:42.249Z,14.69
2022-09-16T04:54:12.125Z,14.69
2022-09-16T04:56:40.027Z,14.72
2022-09-16T04:59:08.000Z,14.69
2022-09-16T05:01:39.604Z,14.63
2022-09-16T05:04:09.314Z,14.62
2022-09-16T05:06:40.817Z,14.77
2022-09-16T05:09:09.588Z,14.65
2022-09-16T05:11:39.194Z,14.67
2022-09-16T05:14:09.489Z,14.64
2022-09-16T05:16:38.845Z,14.75
2022-09-16T05:19:07.065Z,14.76
2022-09-16T05:21:38.109Z,14.67
2022-09-16T05:24:08.646Z,14.66
2022-09-16T05:26:38.321Z,14.61
2022-09-16T05:29:09.118Z,14.62
2022-09-16T05:31:40.163Z,14.64
2022-09-16T05:34:12.477Z,14.58
2022-09-16T05:36:43.243Z,14.67
2022-09-16T05:39:28.472Z,14.69
2022-09-16T05:41:58.294Z,14.63
2022-09-16T05:44:27.553Z,14.62
2022-09-16T05:46:56.961Z,14.67
2022-09-16T05:49:25.665Z,14.68
2022-09-16T05:51:54.441Z,14.67
2022-09-16T05:54:25.281Z,14.68
2022-09-16T05:56:54.327Z,14.72
2022-09-16T05:59:24.173Z,14.71
2022-09-16T06:01:52.528Z,14.74
2022-09-16T06:04:22.424Z,14.73
2022-09-16T06:06:50.675Z,14.73
2022-09-16T06:09:21.154Z,14.79
2022-09-16T06:11:50.854Z,14.80
2022-09-16T06:14:23.099Z,14.84
2022-09-16T06:16:51.657Z,14.85
2022-09-16T06:19:21.818Z,14.88
2022-09-16T06:21:50.080Z,14.86
2022-09-16T06:24:20.646Z,14.84
2022-09-16T06:26:50.176Z,14.91
2022-09-16T06:29:19.237Z,14.93
2022-09-16T06:31:47.532Z,14.94
2022-09-16T06:34:18.550Z,14.98
2022-09-16T06:36:48.814Z,15.06
2022-09-16T06:39:18.228Z,15.15
2022-09-16T06:41:46.950Z,15.22
2022-09-16T06:44:15.770Z,15.25
2022-09-16T06:46:44.335Z,15.28
2022-09-16T06:49:13.206Z,15.23
2022-09-16T06:51:41.676Z,15.28
2022-09-16T06:54:13.043Z,15.34
2022-09-16T06:56:41.732Z,15.29
2022-09-16T06:59:14.514Z,15.28
2022-09-16T07:01:43.080Z,15.34
2022-09-16T07:04:13.392Z,15.22
2022-09-16T07:07:08.134Z,15.28
2022-09-16T07:09:32.618Z,15.22
2022-09-16T07:12:02.610Z,15.24
2022-09-16T07:14:32.658Z,15.33
2022-09-16T07:17:02.047Z,15.41
2022-09-16T07:19:31.383Z,15.68
2022-09-16T07:22:00.348Z,15.80
2022-09-16T07:24:29.015Z,15.91
2022-09-16T07:26:59.408Z,15.87
2022-09-16T07:29:28.062Z,15.86
2022-09-16T07:31:57.261Z,15.87
2022-09-16T07:34:27.115Z,16.05
2022-09-16T07:36:56.978Z,16.05
2022-09-16T07:39:25.794Z,15.93
2022-09-16T07:41:54.126Z,15.95
2022-09-16T07:44:24.624Z,15.83
2022-09-16T07:46:53.090Z,15.83
2022-09-16T07:49:21.557Z,15.76
2022-09-16T07:51:50.208Z,15.86
2022-09-16T07:54:20.242Z,15.72
2022-09-16T07:56:48.945Z,15.70
2022-09-16T07:59:19.408Z,15.65
2022-09-16T08:01:50.850Z,15.65
2022-09-16T08:04:21.276Z,15.64
2022-09-16T08:06:50.219Z,15.68
2022-09-16T08:12:10.846Z,15.53
2022-09-16T08:14:39.661Z,15.59
2022-09-16T08:17:09.424Z,15.65
2022-09-16T08:19:39.281Z,15.71
2022-09-16T08:22:08.349Z,15.69
2022-09-16T08:24:36.775Z,15.65
2022-09-16T08:27:05.855Z,15.88
2022-09-16T08:29:34.283Z,16.10
2022-09-16T08:32:03.443Z,16.18
2022-09-16T08:34:34.029Z,16.08
2022-09-16T08:37:02.418Z,16.12
2022-09-16T08:39:30.756Z,16.17
2022-09-16T08:42:34.738Z,16.21
2022-09-16T08:45:14.423Z,16.12
2022-09-16T08:48:03.348Z,16.25
2022-09-16T08:50:36.943Z,16.18
2022-09-16T08:53:14.073Z,16.09
2022-09-16T08:55:46.908Z,16.33
2022-09-16T08:58:19.324Z,16.21
2022-09-16T09:00:56.336Z,16.13
2022-09-16T09:03:36.758Z,16.06
2022-09-16T09:06:20.224Z,16.14
2022-09-16T09:08:57.558Z,16.24
2022-09-16T09:11:32.868Z,16.20
2022-09-16T09:14:23.346Z,16.21
2022-09-16T09:17:00.767Z,16.26
2022-09-16T09:19:42.957Z,16.43
2022-09-16T09:22:26.005Z,16.29
2022-09-16T09:25:10.209Z,16.19
2022-09-16T09:27:45.458Z,16.33
2022-09-16T09:30:20.867Z,16.38
2022-09-16T09:33:22.127Z,16.45
2022-09-16T09:36:10.093Z,16.58
2022-09-16T09:39:01.837Z,16.54
2022-09-16T09:41:35.469Z,16.57
2022-09-16T09:44:20.524Z,16.67
2022-09-16T09:46:53.888Z,16.66
2022-09-16T09:49:29.863Z,16.62
2022-09-16T09:52:02.907Z,16.59
2022-09-16T09:54:35.738Z,16.61
2022-09-16T09:57:07.030Z,16.73
2022-09-16T09:59:41.458Z,16.78
2022-09-16T10:02:18.131Z,16.83
2022-09-16T10:04:46.785Z,16.75
2022-09-16T10:07:17.727Z,16.77
2022-09-16T10:09:54.913Z,16.78
2022-09-16T10:12:32.123Z,16.80
2022-09-16T10:15:01.325Z,17.14
2022-09-16T10:17:33.270Z,17.48
2022-09-16T10:20:05.278Z,17.82
2022-09-16T10:22:35.496Z,17.67
2022-09-16T10:25:22.223Z,17.61
2022-09-16T10:27:58.371Z,17.63
2022-09-16T10:30:28.150Z,17.63
2022-09-16T10:32:59.652Z,17.67
2022-09-16T10:35:30.722Z,17.85
2022-09-16T10:38:08.127Z,17.67
2022-09-16T10:40:38.693Z,17.67
2022-09-16T10:43:15.006Z,17.69
2022-09-16T10:45:48.519Z,18.06
2022-09-16T10:48:19.672Z,17.86
2022-09-16T10:50:58.811Z,18.10
2022-09-16T10:53:39.400Z,17.92
2022-09-16T10:56:20.646Z,18.24
2022-09-16T10:58:49.404Z,18.24
2022-09-16T11:01:35.186Z,18.44
2022-09-16T11:04:39.097Z,18.52
2022-09-16T11:07:18.863Z,18.95
2022-09-16T11:09:56.039Z,18.79
2022-09-16T11:12:48.611Z,19.09
2022-09-16T11:15:30.277Z,19.28
2022-09-16T11:18:16.126Z,18.80
2022-09-16T11:21:00.845Z,18.52
2022-09-16T11:23:42.189Z,18.16
2022-09-16T11:26:18.680Z,17.50
2022-09-16T11:29:09.498Z,17.23
2022-09-16T11:31:45.396Z,17.04
2022-09-16T11:34:25.630Z,17.05
2022-09-16T11:37:03.995Z,17.15
2022-09-16T11:39:52.602Z,16.62
2022-09-16T11:42:29.254Z,16.36
2022-09-16T11:45:17.649Z,16.18
2022-09-16T11:47:57.029Z,16.18
2022-09-16T11:50:40.196Z,15.93
2022-09-16T11:53:42.240Z,15.81
2022-09-16T11:56:15.306Z,15.63
2022-09-16T11:58:48.870Z,15.83
2022-09-16T12:01:29.087Z,16.53
2022-09-16T12:04:12.351Z,17.42
2022-09-16T12:06:47.318Z,18.26
2022-09-16T12:09:22.150Z,18.58
2022-09-16T12:11:54.237Z,19.02
2022-09-16T12:14:27.873Z,19.63
2022-09-16T12:17:01.361Z,19.16
2022-09-16T12:19:32.717Z,18.77
2022-09-16T12:22:06.455Z,18.96
2022-09-16T12:24:42.677Z,18.69
2022-09-16T12:27:16.718Z,18.51
2022-09-16T12:29:52.237Z,19.14
2022-09-16T12:32:31.957Z,19.12
2022-09-16T12:35:06.194Z,18.81
2022-09-16T12:37:39.680Z,18.52
2022-09-16T12:40:17.833Z,19.26
2022-09-16T12:43:33.233Z,19.61
2022-09-16T12:46:23.558Z,18.72
2022-09-16T12:49:24.622Z,18.46
2022-09-16T12:52:26.080Z,17.89
2022-09-16T12:55:27.926Z,17.39
2022-09-16T12:58:12.085Z,17.47
2022-09-16T13:00:44.906Z,16.99
2022-09-16T13:03:18.101Z,16.92
2022-09-16T13:05:49.354Z,16.51
2022-09-16T13:08:26.010Z,16.21
2022-09-16T13:11:20.927Z,16.21
2022-09-16T13:13:51.054Z,15.80
2022-09-16T13:16:33.195Z,15.61
2022-09-16T13:19:21.430Z,15.54
2022-09-16T13:21:51.177Z,15.46
2022-09-16T13:24:25.597Z,15.46
2022-09-16T13:26:53.620Z,15.55
2022-09-16T13:29:43.854Z,15.76
2022-09-16T13:32:29.260Z,16.27
2022-09-16T13:35:06.599Z,16.89
2022-09-16T13:37:34.763Z,16.97
2022-09-16T13:40:21.827Z,17.30
2022-09-16T13:42:49.738Z,17.45
2022-09-16T13:45:35.700Z,17.45
2022-09-16T13:48:15.124Z,17.36
2022-09-16T13:50:46.618Z,17.22
2022-09-16T13:53:25.635Z,16.75
2022-09-16T13:56:03.463Z,16.68
2022-09-16T13:58:37.634Z,16.57
2022-09-16T14:01:14.373Z,16.50
2022-09-16T14:03:59.770Z,16.32
2022-09-16T14:06:51.311Z,16.40
2022-09-16T14:09:37.417Z,16.22
2022-09-16T14:12:14.674Z,15.94
2022-09-16T14:14:46.849Z,15.96
2022-09-16T14:17:20.426Z,15.98
2022-09-16T14:19:51.668Z,16.00
2022-09-16T14:22:26.837Z,16.53
2022-09-16T14:25:06.781Z,16.57
2022-09-16T14:27:46.767Z,16.71
2022-09-16T14:30:17.870Z,16.73
2022-09-16T14:32:48.521Z,16.65
2022-09-16T14:35:19.877Z,16.72
2022-09-16T14:37:51.142Z,16.59
2022-09-16T14:40:24.277Z,16.63
2022-09-16T14:42:59.807Z,16.49
2022-09-16T14:45:28.506Z,16.37
2022-09-16T14:47:59.302Z,16.33
2022-09-16T14:50:29.491Z,16.34
2022-09-16T14:52:59.002Z,16.33
2022-09-16T14:55:30.015Z,16.35
2022-09-16T14:58:00.175Z,16.49
2022-09-16T15:00:31.585Z,16.57
2022-09-16T15:03:05.135Z,16.48
2022-09-16T15:05:35.868Z,16.35
2022-09-16T15:08:14.467Z,16.20
2022-09-16T15:10:53.952Z,15.86
2022-09-16T15:13:27.229Z,15.56
2022-09-16T15:15:57.777Z,15.26
2022-09-16T15:18:29.467Z,15.15
2022-09-16T15:21:05.538Z,14.89
2022-09-16T15:23:34.867Z,14.64
2022-09-16T15:26:13.436Z,14.45
2022-09-16T15:28:56.143Z,14.20
2022-09-16T15:31:29.784Z,14.04
2022-09-16T15:33:59.657Z,14.03
2022-09-16T15:36:37.299Z,14.15
2022-09-16T15:39:06.295Z,14.15
2022-09-16T15:41:34.237Z,14.23
2022-09-16T15:44:10.070Z,14.42
2022-09-16T15:46:38.679Z,14.52
2022-09-16T15:49:14.537Z,14.58
2022-09-16T15:51:47.500Z,14.53
2022-09-16T15:54:23.625Z,14.49
2022-09-16T15:57:02.145Z,14.61
2022-09-16T15:59:36.610Z,14.57
2022-09-16T16:02:07.738Z,14.62
2022-09-16T16:04:36.707Z,14.71
2022-09-16T16:07:06.262Z,14.67
2022-09-16T16:09:43.840Z,14.66
2022-09-16T16:12:16.247Z,14.48
2022-09-16T16:14:46.640Z,14.35
2022-09-16T16:17:18.472Z,14.47
2022-09-16T16:19:50.256Z,14.11
2022-09-16T16:22:21.225Z,14.16
2022-09-16T16:24:49.180Z,14.11
2022-09-16T16:27:17.075Z,14.06
2022-09-16T16:29:47.233Z,13.97
2022-09-16T16:32:17.306Z,14.00
2022-09-16T16:34:47.971Z,13.92
2022-09-16T16:37:40.354Z,13.62
2022-09-16T16:40:06.782Z,13.76
2022-09-16T16:42:36.013Z,13.58
2022-09-16T16:45:06.409Z,13.49
2022-09-16T16:47:34.866Z,13.32
2022-09-16T16:50:03.035Z,13.33
2022-09-16T16:52:30.926Z,13.27
2022-09-16T16:54:59.126Z,13.20
2022-09-16T16:57:28.938Z,13.13
2022-09-16T16:59:57.131Z,13.08
2022-09-16T17:02:31.848Z,13.06
2022-09-16T17:05:03.349Z,13.04
2022-09-16T17:07:31.134Z,13.00
2022-09-16T17:09:59.663Z,12.89
2022-09-16T17:12:28.466Z,13.03
2022-09-16T17:14:56.558Z,13.03
2022-09-16T17:17:33.784Z,13.04
2022-09-16T17:20:27.832Z,13.05
2022-09-16T17:22:57.932Z,12.98
2022-09-16T17:25:33.002Z,12.96
2022-09-16T17:28:02.171Z,12.93
2022-09-16T17:30:30.763Z,12.85
2022-09-16T17:33:14.300Z,12.87
2022-09-16T17:35:42.831Z,12.87
2022-09-16T17:38:11.885Z,12.86
2022-09-16T17:40:40.143Z,12.81
2022-09-16T17:43:07.997Z,12.90
2022-09-16T17:45:35.979Z,12.96
2022-09-16T17:48:05.789Z,12.94
2022-09-16T17:50:33.877Z,12.95
2022-09-16T17:53:01.840Z,12.80
2022-09-16T17:55:29.717Z,12.71
2022-09-16T17:57:57.894Z,12.64
2022-09-16T18:00:27.092Z,12.60
2022-09-16T18:02:55.736Z,12.54
2022-09-16T18:05:30.008Z,12.61
2022-09-16T18:07:58.458Z,12.73
2022-09-16T18:10:27.304Z,12.74
2022-09-16T18:12:55.521Z,12.71
2022-09-16T18:15:23.894Z,12.63
2022-09-16T18:17:51.883Z,12.67
2022-09-16T18:20:20.702Z,12.63
2022-09-16T18:22:50.270Z,12.61
2022-09-16T18:25:18.444Z,12.58
2022-09-16T18:27:46.344Z,12.71
2022-09-16T18:30:18.957Z,12.75
2022-09-16T18:32:47.670Z,12.77
2022-09-16T18:35:15.699Z,12.76
2022-09-16T18:37:43.975Z,12.79
2022-09-16T18:40:14.143Z,12.81
2022-09-16T18:42:42.273Z,12.85
2022-09-16T18:45:10.747Z,12.84
2022-09-16T18:47:39.103Z,12.81
2022-09-16T18:50:08.110Z,12.68
2022-09-16T18:52:36.072Z,12.73
2022-09-16T18:55:04.904Z,12.72
2022-09-16T18:57:34.717Z,12.75
2022-09-16T19:00:04.978Z,12.76
2022-09-16T19:02:33.062Z,12.73
2022-09-16T19:05:01.805Z,12.85
2022-09-16T19:07:29.891Z,12.82
2022-09-16T19:09:57.669Z,12.86
2022-09-16T19:12:29.465Z,12.86
2022-09-16T19:15:00.004Z,12.85
2022-09-16T19:17:28.371Z,12.86
2022-09-16T19:19:57.160Z,12.87
2022-09-16T19:22:25.371Z,12.84
2022-09-16T19:24:54.204Z,12.86
2022-09-16T19:27:22.275Z,12.88
2022-09-16T19:29:52.173Z,12.77
2022-09-16T19:32:21.818Z,12.73
2022-09-16T19:34:49.649Z,12.67
2022-09-16T19:37:17.688Z,12.65
2022-09-16T19:39:45.599Z,12.58
2022-09-16T19:42:13.382Z,12.61
2022-09-16T19:44:41.302Z,12.58
2022-09-16T19:47:09.657Z,12.59
2022-09-16T19:49:39.225Z,12.54
2022-09-16T19:52:07.298Z,12.41
2022-09-16T19:54:35.167Z,12.36
2022-09-16T19:57:03.154Z,12.35
2022-09-16T19:59:30.945Z,12.36
2022-09-16T20:01:58.986Z,12.32
2022-09-16T20:04:26.848Z,12.43
2022-09-16T20:06:55.929Z,12.34
2022-09-16T20:09:25.134Z,12.32
2022-09-16T20:11:52.955Z,12.23
2022-09-16T20:14:22.662Z,12.12
2022-09-16T20:16:52.253Z,12.11
2022-09-16T20:19:21.688Z,11.97
2022-09-16T20:21:49.701Z,11.93
2022-09-16T20:24:21.420Z,11.93
2022-09-16T20:26:50.905Z,11.89
2022-09-16T20:29:19.725Z,11.82
2022-09-16T20:31:49.132Z,11.83
2022-09-16T20:34:17.031Z,11.73
2022-09-16T20:36:46.239Z,11.72
2022-09-16T20:39:14.969Z,11.71
2022-09-16T20:41:45.544Z,11.70
2022-09-16T20:44:15.527Z,11.76
2022-09-16T20:46:43.623Z,11.72
2022-09-16T20:49:15.764Z,11.69
2022-09-16T20:51:44.233Z,11.64
2022-09-16T20:54:13.817Z,11.61
2022-09-16T20:56:44.937Z,11.67
2022-09-16T20:59:20.192Z,11.65
2022-09-16T21:01:50.607Z,11.67
2022-09-16T21:04:20.777Z,11.71
2022-09-16T21:06:49.337Z,11.71
2022-09-16T21:09:19.138Z,11.82
2022-09-16T21:11:49.689Z,11.74
2022-09-16T21:14:21.461Z,11.77
2022-09-16T21:16:49.377Z,11.61
2022-09-16T21:19:17.929Z,11.61
2022-09-16T21:21:47.497Z,11.63
2022-09-16T21:24:16.313Z,11.57
2022-09-16T21:26:44.845Z,11.62
2022-09-16T21:29:15.884Z,11.49
2022-09-16T21:31:44.839Z,11.37
2022-09-16T21:34:14.931Z,11.35
2022-09-16T21:36:44.368Z,11.40
2022-09-16T21:39:13.388Z,11.36
2022-09-16T21:41:41.765Z,11.40
2022-09-16T21:44:09.657Z,11.33
2022-09-16T21:46:41.410Z,11.47
2022-09-16T21:49:16.918Z,11.34
2022-09-16T21:51:45.251Z,11.31
2022-09-16T21:54:16.566Z,11.28
2022-09-16T21:56:47.015Z,11.30
2022-09-16T21:59:14.868Z,11.25
2022-09-16T22:01:44.055Z,11.20
2022-09-16T22:04:13.703Z,11.15
2022-09-16T22:06:41.775Z,11.12
2022-09-16T22:09:11.555Z,11.17
2022-09-16T22:11:41.633Z,11.20
2022-09-16T22:14:11.026Z,11.27
2022-09-16T22:16:40.350Z,11.22
2022-09-16T22:19:11.542Z,11.29
2022-09-16T22:21:42.163Z,11.26
2022-09-16T22:24:10.799Z,11.17
2022-09-16T22:26:39.253Z,11.17
2022-09-16T22:29:08.947Z,11.21
2022-09-16T22:31:38.269Z,11.26
2022-09-16T22:34:06.962Z,11.25
2022-09-16T22:36:37.420Z,11.27
2022-09-16T22:39:07.652Z,11.20
2022-09-16T22:41:35.938Z,11.15
2022-09-16T22:44:04.090Z,11.31
2022-09-16T22:46:34.132Z,11.15
2022-09-16T22:49:02.304Z,11.09
2022-09-16T22:51:30.078Z,11.20
2022-09-16T22:53:59.435Z,11.06
2022-09-16T22:56:31.769Z,10.96
2022-09-16T22:59:01.757Z,10.85
2022-09-16T23:01:32.828Z,10.91
2022-09-16T23:04:02.581Z,11.15
2022-09-16T23:06:31.926Z,11.19
2022-09-16T23:09:01.990Z,11.00
2022-09-16T23:11:32.292Z,11.01
2022-09-16T23:14:01.336Z,11.09
2022-09-16T23:16:31.316Z,11.12
2022-09-16T23:19:02.415Z,11.17
2022-09-16T23:21:31.026Z,11.25
2022-09-16T23:24:04.474Z,11.29
2022-09-16T23:26:34.611Z,11.44
2022-09-16T23:29:04.523Z,11.24
2022-09-16T23:31:34.613Z,11.19
2022-09-16T23:34:07.471Z,11.17
2022-09-16T23:36:37.485Z,11.16
2022-09-16T23:39:07.543Z,11.11
2022-09-16T23:41:36.380Z,11.02
2022-09-16T23:44:05.512Z,10.96
2022-09-16T23:46:34.327Z,10.91
2022-09-16T23:49:02.862Z,10.95
2022-09-16T23:51:32.121Z,10.92
2022-09-16T23:54:01.190Z,10.93
2022-09-16T23:56:30.411Z,10.93
2022-09-16T23:59:00.501Z,10.83
